createdAt,value
2023-02-20T00:01:38.360Z,3.60
2023-02-20T00:04:06.151Z,2.80
2023-02-20T00:06:33.871Z,3.60
2023-02-20T00:09:01.623Z,2.90
2023-02-20T00:11:30.084Z,2.30
2023-02-20T00:13:57.793Z,3.40
2023-02-20T00:16:25.503Z,3.30
2023-02-20T00:18:53.297Z,3.60
2023-02-20T00:21:21.058Z,3.30
2023-02-20T00:23:48.821Z,3.50
2023-02-20T00:26:16.563Z,2.80
2023-02-20T00:28:44.787Z,3.40
2023-02-20T00:31:15.958Z,3.40
2023-02-20T00:33:44.196Z,4.20
2023-02-20T00:36:19.567Z,3.10
2023-02-20T00:38:48.038Z,3.80
2023-02-20T00:41:17.713Z,4.20
2023-02-20T00:43:45.621Z,3.40
2023-02-20T00:46:15.367Z,3.70
2023-02-20T00:48:43.833Z,3.10
2023-02-20T00:51:28.152Z,2.50
2023-02-20T00:53:55.932Z,2.30
2023-02-20T00:56:23.685Z,3.70
2023-02-20T00:58:51.436Z,3.30
2023-02-20T01:01:19.555Z,2.80
2023-02-20T01:03:47.332Z,2.70
2023-02-20T01:06:16.682Z,2.80
2023-02-20T01:08:44.956Z,2.40
2023-02-20T01:11:12.896Z,2.50
2023-02-20T01:13:40.609Z,3.60
2023-02-20T01:16:08.452Z,2.70
2023-02-20T01:18:36.641Z,2.30
2023-02-20T01:21:04.474Z,2.90
2023-02-20T01:23:32.253Z,3.60
2023-02-20T01:26:03.714Z,2.40
2023-02-20T01:28:31.418Z,3.00
2023-02-20T01:30:59.222Z,2.80
2023-02-20T01:33:28.115Z,3.20
2023-02-20T01:35:55.819Z,2.20
2023-02-20T01:38:23.544Z,2.80
2023-02-20T01:40:51.322Z,2.90
2023-02-20T01:43:19.410Z,2.60
2023-02-20T01:45:47.209Z,2.60
2023-02-20T01:48:30.902Z,3.80
2023-02-20T01:51:00.031Z,3.90
2023-02-20T01:53:31.048Z,2.80
2023-02-20T01:56:02.372Z,2.50
2023-02-20T01:58:56.508Z,3.00
2023-02-20T02:04:00.209Z,3.40
2023-02-20T02:06:29.364Z,2.40
2023-02-20T02:09:02.799Z,2.60
2023-02-20T02:11:30.658Z,3.20
2023-02-20T02:13:58.413Z,3.20
2023-02-20T02:16:47.589Z,4.70
2023-02-20T02:19:31.229Z,2.80
2023-02-20T02:22:40.787Z,3.10
2023-02-20T02:25:40.450Z,3.80
2023-02-20T02:28:30.226Z,3.10
2023-02-20T02:31:29.997Z,2.50
2023-02-20T02:34:34.205Z,3.50
2023-02-20T02:37:23.986Z,3.00
2023-02-20T02:40:03.581Z,3.00
2023-02-20T02:42:51.559Z,2.40
2023-02-20T02:45:35.376Z,3.20
2023-02-20T02:50:36.668Z,3.60
2023-02-20T02:53:07.160Z,3.20
2023-02-20T02:55:36.457Z,3.60
2023-02-20T02:58:05.389Z,4.00
2023-02-20T03:00:36.197Z,3.50
2023-02-20T03:03:18.721Z,2.60
2023-02-20T03:06:09.594Z,3.30
2023-02-20T03:08:44.344Z,3.80
2023-02-20T03:11:21.107Z,3.30
2023-02-20T03:14:25.520Z,3.30
2023-02-20T03:16:56.308Z,3.40
2023-02-20T03:19:31.495Z,3.10
2023-02-20T03:22:02.432Z,3.20
2023-02-20T03:24:53.314Z,3.70
2023-02-20T03:27:39.110Z,3.30
2023-02-20T03:30:41.816Z,2.90
2023-02-20T03:33:32.292Z,3.00
2023-02-20T03:36:19.207Z,4.00
2023-02-20T03:39:08.275Z,3.80
2023-02-20T03:41:56.113Z,3.00
2023-02-20T03:44:26.239Z,2.90
2023-02-20T03:46:57.494Z,3.40
2023-02-20T03:49:31.696Z,3.40
2023-02-20T03:51:59.831Z,2.70
2023-02-20T03:54:36.340Z,3.10
2023-02-20T03:57:08.832Z,3.50
2023-02-20T03:59:41.314Z,3.60
2023-02-20T04:02:17.266Z,3.20
2023-02-20T04:04:50.433Z,2.90
2023-02-20T04:07:36.273Z,3.50
2023-02-20T04:10:09.313Z,3.10
2023-02-20T04:12:43.069Z,2.80
2023-02-20T04:15:12.726Z,2.80
2023-02-20T04:17:47.361Z,2.50
2023-02-20T04:20:15.707Z,2.20
2023-02-20T04:22:53.020Z,3.00
2023-02-20T04:25:42.703Z,3.80
2023-02-20T04:28:11.179Z,2.80
2023-02-20T04:30:51.899Z,2.70
2023-02-20T04:33:21.242Z,3.40
2023-02-20T04:35:49.555Z,4.00
2023-02-20T04:38:18.570Z,3.00
2023-02-20T04:40:46.405Z,3.20
2023-02-20T04:43:14.491Z,3.30
2023-02-20T04:45:42.375Z,3.70
2023-02-20T04:48:10.718Z,2.60
2023-02-20T04:50:38.909Z,2.90
2023-02-20T04:53:07.642Z,3.40
2023-02-20T04:55:35.406Z,3.80
2023-02-20T04:58:07.682Z,3.00
2023-02-20T05:00:48.177Z,2.70
2023-02-20T05:03:16.198Z,2.90
2023-02-20T05:05:43.967Z,3.50
2023-02-20T05:08:12.045Z,2.90
2023-02-20T05:10:39.937Z,3.00
2023-02-20T05:13:07.661Z,3.50
2023-02-20T05:15:35.533Z,3.00
2023-02-20T05:18:03.466Z,3.30
2023-02-20T05:20:47.138Z,3.90
2023-02-20T05:23:14.862Z,3.30
2023-02-20T05:25:42.589Z,3.40
2023-02-20T05:28:10.319Z,3.60
2023-02-20T05:30:38.081Z,4.20
2023-02-20T05:33:06.040Z,3.70
2023-02-20T05:35:35.811Z,3.60
2023-02-20T05:38:03.579Z,4.10
2023-02-20T05:40:32.350Z,3.80
2023-02-20T05:43:00.109Z,4.90
2023-02-20T05:45:27.860Z,4.40
2023-02-20T05:47:55.565Z,3.80
2023-02-20T05:50:23.314Z,3.90
2023-02-20T05:52:51.971Z,4.50
2023-02-20T05:55:19.729Z,3.80
2023-02-20T05:57:47.451Z,4.00
2023-02-20T06:00:15.485Z,4.80
2023-02-20T06:02:43.206Z,4.70
2023-02-20T06:05:11.101Z,4.70
2023-02-20T06:07:38.812Z,4.30
2023-02-20T06:10:06.724Z,4.70
2023-02-20T06:12:34.461Z,4.00
2023-02-20T06:15:02.594Z,4.40
2023-02-20T06:17:35.755Z,4.40
2023-02-20T06:20:07.747Z,4.20
2023-02-20T06:22:35.657Z,3.90
2023-02-20T06:25:03.975Z,5.70
2023-02-20T06:27:31.936Z,4.30
2023-02-20T06:30:00.294Z,4.30
2023-02-20T06:32:28.083Z,4.40
2023-02-20T06:34:56.098Z,4.10
2023-02-20T06:37:23.943Z,4.20
2023-02-20T06:39:51.825Z,4.60
2023-02-20T06:42:19.556Z,4.90
2023-02-20T06:44:47.305Z,4.40
2023-02-20T06:47:15.576Z,5.80
2023-02-20T06:49:44.000Z,5.00
2023-02-20T06:52:11.821Z,5.40
2023-02-20T06:54:40.198Z,4.70
2023-02-20T06:57:07.975Z,4.60
2023-02-20T06:59:41.400Z,4.80
2023-02-20T07:02:12.660Z,5.20
2023-02-20T07:04:41.085Z,3.80
2023-02-20T07:07:08.841Z,5.20
2023-02-20T07:09:36.759Z,5.10
2023-02-20T07:12:05.105Z,7.20
2023-02-20T07:14:33.548Z,10.90
2023-02-20T07:17:01.860Z,7.10
2023-02-20T07:19:32.925Z,6.80
2023-02-20T07:22:01.440Z,5.50
2023-02-20T07:24:29.624Z,4.80
2023-02-20T07:26:57.654Z,4.90
2023-02-20T07:29:25.925Z,5.70
2023-02-20T07:31:54.023Z,4.90
2023-02-20T07:34:22.201Z,5.90
2023-02-20T07:36:51.450Z,6.50
2023-02-20T07:39:21.849Z,5.80
2023-02-20T07:41:51.083Z,6.60
2023-02-20T07:44:48.779Z,5.30
2023-02-20T07:47:16.896Z,7.00
2023-02-20T07:49:45.636Z,8.00
2023-02-20T07:52:13.432Z,10.60
2023-02-20T07:54:41.650Z,9.10
2023-02-20T07:57:09.767Z,12.70
2023-02-20T07:59:37.560Z,10.80
2023-02-20T08:02:05.826Z,10.30
2023-02-20T08:04:33.717Z,12.80
2023-02-20T08:07:01.501Z,12.30
2023-02-20T08:09:29.500Z,14.50
2023-02-20T08:11:57.361Z,29.80
2023-02-20T08:14:25.244Z,14.20
2023-02-20T08:16:53.051Z,18.70
2023-02-20T08:19:21.138Z,17.10
2023-02-20T08:21:48.841Z,27.50
2023-02-20T08:24:16.550Z,16.60
2023-02-20T08:26:45.890Z,14.90
2023-02-20T08:29:15.080Z,15.50
2023-02-20T08:31:43.392Z,16.50
2023-02-20T08:34:11.350Z,15.10
2023-02-20T08:36:41.017Z,13.80
2023-02-20T08:39:08.985Z,12.60
2023-02-20T08:41:43.313Z,11.90
2023-02-20T08:44:12.606Z,12.00
2023-02-20T08:46:48.003Z,10.70
2023-02-20T08:49:18.069Z,11.60
2023-02-20T08:51:47.299Z,13.10
2023-02-20T08:54:16.164Z,12.60
2023-02-20T08:56:44.421Z,11.70
2023-02-20T08:59:12.194Z,10.80
2023-02-20T09:01:43.843Z,10.90
2023-02-20T09:04:11.774Z,10.00
2023-02-20T09:06:39.568Z,9.40
2023-02-20T09:09:07.357Z,10.90
2023-02-20T09:11:36.267Z,10.90
2023-02-20T09:14:04.443Z,10.80
2023-02-20T09:16:33.263Z,10.70
2023-02-20T09:19:01.122Z,9.90
2023-02-20T09:21:29.332Z,10.00
2023-02-20T09:23:57.080Z,10.10
2023-02-20T09:26:24.888Z,10.40
2023-02-20T09:28:52.860Z,10.20
2023-02-20T09:31:20.816Z,10.70
2023-02-20T09:33:51.336Z,9.90
2023-02-20T09:36:19.557Z,11.20
2023-02-20T09:38:47.423Z,11.10
2023-02-20T09:41:41.227Z,12.20
2023-02-20T09:44:27.160Z,13.90
2023-02-20T09:47:03.540Z,13.70
2023-02-20T09:49:37.188Z,12.10
2023-02-20T09:52:10.744Z,13.40
2023-02-20T09:57:22.169Z,12.40
2023-02-20T10:00:06.602Z,13.60
2023-02-20T10:02:44.656Z,14.20
2023-02-20T10:05:22.195Z,14.40
2023-02-20T10:07:51.320Z,13.60
2023-02-20T10:10:21.931Z,15.10
2023-02-20T10:12:49.631Z,14.90
2023-02-20T10:15:49.265Z,15.00
2023-02-20T10:18:42.828Z,13.90
2023-02-20T10:21:10.694Z,15.70
2023-02-20T10:24:05.324Z,15.60
2023-02-20T10:26:39.532Z,15.60
2023-02-20T10:29:19.946Z,18.20
2023-02-20T10:32:03.140Z,16.00
2023-02-20T10:34:38.055Z,17.00
2023-02-20T10:37:17.775Z,16.70
2023-02-20T10:39:56.490Z,19.70
2023-02-20T10:42:56.147Z,17.50
2023-02-20T10:45:31.965Z,17.50
2023-02-20T10:48:09.598Z,18.10
2023-02-20T10:51:00.637Z,18.40
2023-02-20T10:54:01.036Z,17.50
2023-02-20T10:56:50.864Z,16.30
2023-02-20T10:59:37.734Z,18.30
2023-02-20T11:02:15.598Z,17.60
2023-02-20T11:04:50.213Z,18.60
2023-02-20T11:07:19.730Z,17.20
2023-02-20T11:09:49.540Z,18.40
2023-02-20T11:12:32.510Z,19.20
2023-02-20T11:15:10.423Z,17.70
2023-02-20T11:17:40.286Z,19.80
2023-02-20T11:20:45.909Z,19.70
2023-02-20T11:23:38.206Z,19.20
2023-02-20T11:26:30.336Z,20.20
2023-02-20T11:29:12.414Z,19.70
2023-02-20T11:31:42.265Z,19.60
2023-02-20T11:34:20.621Z,19.00
2023-02-20T11:36:54.612Z,21.60
2023-02-20T11:39:29.781Z,21.00
2023-02-20T11:42:18.881Z,20.60
2023-02-20T11:45:12.626Z,18.00
2023-02-20T11:47:40.514Z,19.70
2023-02-20T11:50:19.653Z,19.90
2023-02-20T11:53:22.937Z,18.60
2023-02-20T11:56:08.816Z,21.60
2023-02-20T11:58:38.568Z,19.20
2023-02-20T12:01:07.236Z,20.20
2023-02-20T12:03:38.732Z,21.30
2023-02-20T12:06:32.978Z,19.50
2023-02-20T12:09:03.072Z,18.40
2023-02-20T12:11:31.312Z,19.30
2023-02-20T12:14:00.918Z,20.60
2023-02-20T12:16:57.652Z,16.80
2023-02-20T12:19:28.339Z,17.50
2023-02-20T12:22:28.240Z,20.10
2023-02-20T12:25:04.738Z,18.80
2023-02-20T12:28:04.447Z,18.10
2023-02-20T12:30:37.789Z,18.20
2023-02-20T12:33:24.300Z,15.90
2023-02-20T12:36:04.796Z,20.50
2023-02-20T12:39:02.551Z,19.10
2023-02-20T12:41:49.998Z,19.20
2023-02-20T12:44:33.735Z,20.90
2023-02-20T12:47:25.218Z,21.20
2023-02-20T12:50:08.836Z,20.80
2023-02-20T12:52:58.502Z,19.30
2023-02-20T12:55:58.279Z,20.00
2023-02-20T12:58:44.633Z,18.60
2023-02-20T13:01:15.529Z,19.70
2023-02-20T13:04:07.062Z,21.30
2023-02-20T13:07:06.839Z,20.80
2023-02-20T13:09:52.081Z,19.50
2023-02-20T13:12:20.353Z,19.60
2023-02-20T13:15:21.895Z,18.70
2023-02-20T13:18:17.562Z,20.20
2023-02-20T13:21:05.084Z,23.20
2023-02-20T13:23:35.547Z,21.90
2023-02-20T13:26:39.143Z,23.50
2023-02-20T13:29:20.701Z,21.70
2023-02-20T13:31:49.817Z,23.20
2023-02-20T13:34:17.709Z,21.10
2023-02-20T13:36:48.781Z,22.00
2023-02-20T13:39:23.290Z,23.60
2023-02-20T13:41:56.748Z,22.90
2023-02-20T13:44:27.645Z,22.10
2023-02-20T13:47:22.157Z,21.40
2023-02-20T13:49:58.866Z,20.70
2023-02-20T13:52:33.968Z,21.60
2023-02-20T13:55:22.859Z,19.70
2023-02-20T13:58:02.900Z,21.20
2023-02-20T14:00:53.795Z,20.00
2023-02-20T14:03:26.372Z,22.90
2023-02-20T14:06:21.858Z,20.40
2023-02-20T14:08:49.952Z,19.30
2023-02-20T14:11:35.437Z,19.90
2023-02-20T14:14:09.638Z,20.00
2023-02-20T14:16:41.885Z,19.00
2023-02-20T14:19:26.902Z,19.50
2023-02-20T14:21:54.730Z,19.90
2023-02-20T14:24:28.556Z,19.40
2023-02-20T14:26:56.759Z,17.30
2023-02-20T14:29:28.485Z,19.60
2023-02-20T14:31:58.725Z,18.20
2023-02-20T14:34:49.302Z,18.30
2023-02-20T14:37:30.078Z,17.00
2023-02-20T14:40:17.084Z,16.80
2023-02-20T14:42:46.916Z,18.10
2023-02-20T14:45:30.590Z,17.20
2023-02-20T14:48:00.704Z,17.20
2023-02-20T14:50:34.575Z,17.60
2023-02-20T14:53:28.699Z,16.90
2023-02-20T14:55:57.844Z,17.10
2023-02-20T14:58:27.963Z,16.70
2023-02-20T15:00:57.602Z,18.70
2023-02-20T15:03:31.710Z,18.80
2023-02-20T15:06:03.254Z,19.70
2023-02-20T15:08:37.739Z,18.80
2023-02-20T15:11:08.708Z,21.10
2023-02-20T15:13:40.356Z,20.50
2023-02-20T15:16:17.231Z,22.10
2023-02-20T15:18:49.635Z,25.10
2023-02-20T15:21:36.660Z,26.40
2023-02-20T15:24:36.337Z,25.90
2023-02-20T15:27:16.857Z,27.40
2023-02-20T15:29:46.998Z,25.80
2023-02-20T15:32:24.064Z,26.30
2023-02-20T15:34:55.378Z,26.30
2023-02-20T15:37:30.655Z,26.50
2023-02-20T15:40:25.916Z,26.80
2023-02-20T15:42:58.073Z,27.80
2023-02-20T15:45:29.604Z,27.40
2023-02-20T15:47:58.666Z,27.30
2023-02-20T15:50:27.306Z,25.40
2023-02-20T15:52:56.985Z,27.40
2023-02-20T15:55:25.909Z,25.20
2023-02-20T15:57:56.744Z,25.50
2023-02-20T16:00:28.495Z,23.40
2023-02-20T16:02:56.468Z,27.00
2023-02-20T16:05:24.757Z,23.40
2023-02-20T16:07:52.761Z,21.70
2023-02-20T16:10:25.866Z,21.30
2023-02-20T16:12:56.760Z,20.50
2023-02-20T16:15:27.366Z,19.70
2023-02-20T16:17:55.606Z,17.30
2023-02-20T16:20:29.524Z,19.00
2023-02-20T16:22:57.313Z,17.00
2023-02-20T16:25:25.043Z,17.30
2023-02-20T16:27:55.920Z,17.30
2023-02-20T16:30:33.650Z,16.50
2023-02-20T16:33:03.550Z,15.00
2023-02-20T16:35:31.356Z,15.00
2023-02-20T16:37:59.134Z,15.50
2023-02-20T16:40:26.873Z,13.00
2023-02-20T16:42:54.603Z,13.30
2023-02-20T16:45:22.923Z,14.10
2023-02-20T16:47:53.525Z,13.00
2023-02-20T16:50:29.840Z,13.00
2023-02-20T16:52:59.313Z,12.40
2023-02-20T16:55:36.278Z,11.90
2023-02-20T16:58:04.630Z,12.20
2023-02-20T17:00:38.354Z,11.90
2023-02-20T17:03:07.852Z,11.40
2023-02-20T17:05:38.612Z,10.80
2023-02-20T17:08:07.124Z,10.10
2023-02-20T17:10:35.186Z,10.30
2023-02-20T17:13:03.076Z,10.00
2023-02-20T17:15:30.836Z,8.30
2023-02-20T17:17:58.638Z,9.40
2023-02-20T17:20:27.680Z,9.50
2023-02-20T17:23:04.755Z,9.00
2023-02-20T17:25:34.974Z,8.50
2023-02-20T17:28:04.907Z,8.00
2023-02-20T17:30:32.802Z,7.20
2023-02-20T17:33:00.644Z,7.00
2023-02-20T17:35:28.918Z,7.80
2023-02-20T17:37:56.628Z,6.80
2023-02-20T17:40:24.364Z,5.40
2023-02-20T17:42:52.257Z,5.60
2023-02-20T17:45:19.995Z,5.60
2023-02-20T17:47:47.769Z,6.20
2023-02-20T17:50:18.750Z,5.10
2023-02-20T17:52:46.870Z,5.70
2023-02-20T17:55:19.962Z,5.10
2023-02-20T17:57:48.023Z,5.60
2023-02-20T18:00:17.410Z,5.60
2023-02-20T18:02:45.756Z,5.30
2023-02-20T18:05:13.534Z,7.00
2023-02-20T18:07:41.280Z,5.60
2023-02-20T18:10:09.241Z,6.10
2023-02-20T18:12:37.133Z,6.70
2023-02-20T18:15:05.296Z,7.20
2023-02-20T18:17:35.050Z,7.80
2023-02-20T18:20:02.838Z,7.50
2023-02-20T18:22:30.636Z,7.90
2023-02-20T18:24:58.464Z,8.90
2023-02-20T18:27:26.360Z,8.60
2023-02-20T18:29:54.344Z,7.80
2023-02-20T18:32:22.308Z,8.50
2023-02-20T18:34:50.330Z,7.80
2023-02-20T18:37:18.218Z,8.00
2023-02-20T18:39:46.496Z,7.90
2023-02-20T18:42:14.530Z,7.90
2023-02-20T18:44:46.979Z,8.40
2023-02-20T18:47:16.026Z,8.30
2023-02-20T18:49:48.040Z,6.30
2023-02-20T18:52:17.441Z,7.10
2023-02-20T18:54:46.665Z,7.20
2023-02-20T18:57:14.588Z,6.40
2023-02-20T18:59:44.184Z,6.10
2023-02-20T19:02:16.087Z,5.30
2023-02-20T19:04:44.691Z,5.40
2023-02-20T19:07:12.444Z,4.20
2023-02-20T19:09:40.171Z,3.00
2023-02-20T19:12:07.962Z,2.90
2023-02-20T19:14:35.886Z,3.50
2023-02-20T19:17:07.766Z,5.30
2023-02-20T19:19:35.684Z,4.20
2023-02-20T19:22:04.059Z,3.70
2023-02-20T19:24:31.881Z,3.20
2023-02-20T19:26:59.615Z,3.00
2023-02-20T19:29:27.355Z,3.80
2023-02-20T19:31:56.922Z,4.00
2023-02-20T19:34:25.102Z,3.30
2023-02-20T19:36:54.034Z,3.40
2023-02-20T19:39:21.912Z,3.70
2023-02-20T19:41:50.328Z,3.70
2023-02-20T19:44:18.116Z,3.30
2023-02-20T19:46:45.913Z,3.10
2023-02-20T19:49:13.816Z,3.00
2023-02-20T19:51:50.116Z,3.50
2023-02-20T19:54:25.992Z,3.30
2023-02-20T19:57:02.526Z,3.20
2023-02-20T19:59:31.524Z,3.00
2023-02-20T20:02:00.813Z,3.70
2023-02-20T20:04:31.754Z,3.00
2023-02-20T20:07:01.128Z,3.00
2023-02-20T20:09:36.226Z,3.20
2023-02-20T20:12:27.155Z,3.30
2023-02-20T20:14:55.674Z,3.30
2023-02-20T20:17:23.480Z,2.80
2023-02-20T20:20:00.536Z,4.00
2023-02-20T20:22:29.652Z,3.20
2023-02-20T20:24:58.319Z,3.10
2023-02-20T20:27:26.114Z,2.90
2023-02-20T20:29:53.965Z,2.80
2023-02-20T20:32:22.042Z,3.70
2023-02-20T20:34:55.655Z,3.10
2023-02-20T20:37:25.540Z,2.80
2023-02-20T20:39:56.490Z,4.00
2023-02-20T20:42:27.627Z,3.90
2023-02-20T20:44:57.831Z,3.70
2023-02-20T20:47:30.869Z,3.90
2023-02-20T20:49:59.538Z,3.90
2023-02-20T20:52:29.559Z,3.40
2023-02-20T20:55:01.140Z,4.20
2023-02-20T20:57:32.039Z,4.70
2023-02-20T21:00:00.533Z,3.30
2023-02-20T21:02:28.642Z,3.90
2023-02-20T21:05:09.202Z,4.00
2023-02-20T21:07:39.453Z,3.60
2023-02-20T21:10:09.379Z,3.90
2023-02-20T21:12:38.086Z,3.90
2023-02-20T21:15:07.559Z,3.60
2023-02-20T21:17:35.419Z,3.60
2023-02-20T21:20:07.093Z,4.00
2023-02-20T21:22:35.494Z,4.30
2023-02-20T21:25:04.695Z,4.10
2023-02-20T21:27:32.496Z,4.70
2023-02-20T21:30:00.227Z,4.80
2023-02-20T21:32:29.853Z,5.20
2023-02-20T21:34:58.234Z,5.20
2023-02-20T21:37:27.666Z,4.90
2023-02-20T21:39:55.418Z,5.10
2023-02-20T21:42:39.199Z,6.10
2023-02-20T21:47:34.784Z,5.20
2023-02-20T21:50:02.571Z,6.10
2023-02-20T21:52:36.593Z,4.40
2023-02-20T21:55:08.460Z,3.90
2023-02-20T21:57:36.216Z,5.50
2023-02-20T22:00:09.572Z,4.60
2023-02-20T22:02:38.720Z,4.80
2023-02-20T22:05:08.573Z,4.60
2023-02-20T22:07:52.443Z,4.90
2023-02-20T22:13:20.236Z,4.60
2023-02-20T22:16:04.106Z,4.90
2023-02-20T22:21:37.246Z,4.40
2023-02-20T22:24:33.766Z,5.40
2023-02-20T22:27:23.001Z,5.30
2023-02-20T22:30:06.772Z,5.00
2023-02-20T22:35:34.194Z,5.10
2023-02-20T22:38:17.862Z,4.90
2023-02-20T22:41:01.849Z,4.50
2023-02-20T22:43:45.651Z,5.20
2023-02-20T22:46:39.198Z,4.90
2023-02-20T22:49:23.141Z,6.40
2023-02-20T22:52:06.975Z,5.70
2023-02-20T22:57:48.564Z,5.20
2023-02-20T23:00:32.344Z,5.50
2023-02-20T23:06:11.566Z,5.70
2023-02-20T23:09:00.750Z,4.90
2023-02-20T23:11:43.469Z,4.90
2023-02-20T23:14:27.197Z,5.00
2023-02-20T23:17:10.945Z,4.20
2023-02-20T23:19:56.390Z,4.60
2023-02-20T23:22:40.162Z,5.80
2023-02-20T23:25:23.798Z,6.00
2023-02-20T23:28:06.505Z,5.00
2023-02-20T23:30:51.254Z,4.30
2023-02-20T23:33:35.013Z,4.10
2023-02-20T23:36:18.733Z,4.00
2023-02-20T23:39:01.473Z,4.80
2023-02-20T23:41:45.182Z,3.70
2023-02-20T23:44:28.480Z,4.50
2023-02-20T23:47:12.280Z,3.90
2023-02-20T23:52:39.539Z,3.10
2023-02-20T23:55:23.578Z,4.70
2023-02-20T23:58:07.364Z,4.50
